Time;durP1;ratioP1;P1;durP2;ratioP2;P2;SDS_P1;SDS_P2;PMS_P1;PMS_P2;Temp;Humidity;BMP_temperature;BMP_pressure;BME280_temperature;BME280_humidity;BME280_pressure;Samples;Min_cycle;Max_cycle;Signal;HPM_P1;HPM_P2
2022/03/25 00:01:29;;;;;;;56.30;32.80;;;;;;;13.55;39.95;102795.28;5084631;28;20109;-66
2022/03/25 00:03:57;;;;;;;54.13;31.80;;;;;;;13.46;40.23;102795.75;5076714;28;20408;-66
2022/03/25 00:06:26;;;;;;;50.95;30.30;;;;;;;13.36;40.34;102806.13;5087331;28;20044;-66
2022/03/25 00:08:52;;;;;;;51.33;31.67;;;;;;;13.28;40.28;102805.66;5085671;28;20044;-66
2022/03/25 00:11:19;;;;;;;52.42;30.95;;;;;;;13.23;40.34;102804.13;5090060;28;20051;-65
2022/03/25 00:13:45;;;;;;;54.45;32.05;;;;;;;13.19;40.58;102805.25;5078402;28;20048;-67
2022/03/25 00:16:12;;;;;;;52.78;30.38;;;;;;;13.18;40.66;102807.06;5090961;28;20132;-67
2022/03/25 00:18:39;;;;;;;48.80;30.67;;;;;;;13.15;40.71;102806.31;5095898;28;20039;-66
2022/03/25 00:21:06;;;;;;;51.35;30.58;;;;;;;13.10;40.75;102805.69;5095272;28;20062;-67
2022/03/25 00:23:42;;;;;;;51.28;31.70;;;;;;;13.02;40.87;102806.94;5090676;28;20055;-67
2022/03/25 00:26:09;;;;;;;52.75;32.28;;;;;;;12.97;40.92;102800.91;5096040;28;20477;-66
2022/03/25 00:28:37;;;;;;;56.05;31.85;;;;;;;12.92;41.11;102802.97;5096539;28;20447;-65
2022/03/25 00:31:07;;;;;;;56.08;33.25;;;;;;;12.89;40.92;102802.25;5059643;28;20044;-66
2022/03/25 00:33:37;;;;;;;58.28;32.13;;;;;;;12.87;41.21;102812.22;5087552;28;20043;-66
2022/03/25 00:36:07;;;;;;;54.28;31.58;;;;;;;12.84;41.39;102805.16;5077573;28;20493;-66
2022/03/25 00:38:33;;;;;;;55.72;32.75;;;;;;;12.82;41.19;102806.19;5062675;28;20376;-66
2022/03/25 00:41:06;;;;;;;53.67;31.75;;;;;;;12.80;41.63;102802.69;5077002;28;20676;-67
2022/03/25 00:43:36;;;;;;;53.40;32.17;;;;;;;12.79;41.56;102809.03;5076097;28;20123;-65
2022/03/25 00:46:03;;;;;;;52.45;30.25;;;;;;;12.76;41.59;102799.28;5078336;28;20047;-66
2022/03/25 00:48:30;;;;;;;49.72;31.25;;;;;;;12.72;41.54;102801.25;5093810;28;20044;-66
2022/03/25 00:50:57;;;;;;;53.05;31.40;;;;;;;12.71;41.60;102809.41;5058001;28;20047;-66
2022/03/25 00:53:25;;;;;;;55.28;30.75;;;;;;;12.66;41.58;102797.97;5059588;28;20105;-66
2022/03/25 00:55:52;;;;;;;52.83;30.65;;;;;;;12.63;41.78;102803.47;5058895;28;20545;-65
2022/03/25 00:58:21;;;;;;;51.70;30.65;;;;;;;12.59;41.75;102810.84;5077249;28;20036;-66
2022/03/25 01:00:48;;;;;;;50.67;31.20;;;;;;;12.54;41.67;102804.81;5057430;28;20097;-67
2022/03/25 01:03:17;;;;;;;51.95;31.20;;;;;;;12.49;41.72;102803.28;5058081;28;20060;-66
2022/03/25 01:05:44;;;;;;;54.40;32.13;;;;;;;12.41;41.75;102804.53;5062212;28;20386;-66
2022/03/25 01:08:11;;;;;;;51.90;30.60;;;;;;;12.36;41.85;102797.59;5065543;28;20044;-67
2022/03/25 01:10:38;;;;;;;51.72;31.15;;;;;;;12.29;41.88;102797.03;5084931;28;20060;-67
2022/03/25 01:13:06;;;;;;;51.58;31.45;;;;;;;12.27;42.15;102800.72;5075656;28;20051;-67
2022/03/25 01:15:41;;;;;;;58.88;30.80;;;;;;;12.23;42.16;102807.22;5057440;28;20058;-66
2022/03/25 01:18:08;;;;;;;54.25;32.35;;;;;;;12.18;41.92;102809.25;5076505;28;20508;-67
2022/03/25 01:20:35;;;;;;;58.20;33.08;;;;;;;12.14;42.20;102807.66;5079106;28;20405;-67
2022/03/25 01:23:02;;;;;;;52.33;30.98;;;;;;;12.09;42.23;102813.25;5076217;28;20087;-67
2022/03/25 01:25:29;;;;;;;52.65;31.27;;;;;;;12.07;42.25;102810.63;5061339;28;20064;-66
2022/03/25 01:27:56;;;;;;;52.38;31.67;;;;;;;12.04;42.34;102812.59;5077948;28;20459;-66
2022/03/25 01:30:22;;;;;;;51.75;30.00;;;;;;;12.01;42.34;102812.72;5077063;28;20050;-67
2022/03/25 01:32:56;;;;;;;56.65;30.80;;;;;;;11.97;42.51;102808.41;5081994;28;20045;-67
2022/03/25 01:35:24;;;;;;;51.30;30.05;;;;;;;11.94;42.35;102808.56;5057267;28;20098;-66
2022/03/25 01:37:51;;;;;;;49.92;31.38;;;;;;;11.91;42.40;102803.31;5090363;28;20032;-66
2022/03/25 01:40:18;;;;;;;50.72;29.90;;;;;;;11.90;42.42;102805.13;5087418;28;20044;-67
2022/03/25 01:42:47;;;;;;;50.25;29.48;;;;;;;11.90;42.42;102805.13;5052961;28;20090;-67
2022/03/25 01:45:26;;;;;;;49.35;28.27;;;;;;;11.89;42.53;102797.09;5076891;28;20507;-65
2022/03/25 01:47:53;;;;;;;45.55;29.25;;;;;;;11.87;42.58;102789.09;5057027;28;20046;-66
2022/03/25 01:50:21;;;;;;;47.63;28.40;;;;;;;11.87;42.52;102801.69;5094982;28;20040;-67
2022/03/25 01:52:50;;;;;;;50.90;29.00;;;;;;;11.86;42.63;102798.09;5076218;28;20064;-67
2022/03/25 01:55:21;;;;;;;50.17;28.70;;;;;;;11.85;42.60;102804.44;5095239;28;20126;-66
2022/03/25 01:58:12;;;;;;;54.40;28.83;;;;;;;11.82;42.62;102801.00;5076225;28;20409;-68
2022/03/25 02:00:40;;;;;;;46.72;27.20;;;;;;;11.80;42.49;102801.06;5057005;28;20051;-67
2022/03/25 02:03:07;;;;;;;47.72;27.90;;;;;;;11.76;42.53;102799.44;5093731;28;20035;-68
2022/03/25 02:05:35;;;;;;;48.38;28.30;;;;;;;11.71;42.44;102801.47;5067670;28;20048;-66
2022/03/25 02:08:08;;;;;;;48.20;27.90;;;;;;;11.66;42.64;102803.47;5056202;28;20051;-67
2022/03/25 02:10:35;;;;;;;51.58;29.10;;;;;;;11.64;42.71;102805.38;5074154;28;20048;-67
2022/03/25 02:13:02;;;;;;;44.65;27.50;;;;;;;11.59;42.67;102805.56;5069508;28;20097;-67
2022/03/25 02:15:43;;;;;;;51.10;29.60;;;;;;;11.56;42.68;102807.53;5074650;28;20058;-67
2022/03/25 02:18:15;;;;;;;48.80;28.27;;;;;;;11.53;43.00;102803.16;5076744;28;20039;-66
2022/03/25 02:20:42;;;;;;;48.97;29.13;;;;;;;11.51;42.80;102801.47;5059912;28;20048;-67
2022/03/25 02:23:12;;;;;;;49.00;28.45;;;;;;;11.48;42.81;102801.59;5066353;28;20498;-67
2022/03/25 02:25:41;;;;;;;54.63;27.95;;;;;;;11.45;42.95;102805.31;5067101;28;20041;-67
2022/03/25 02:28:09;;;;;;;45.58;29.20;;;;;;;11.42;42.86;102800.06;5061950;28;20040;-67
2022/03/25 02:30:38;;;;;;;49.97;29.08;;;;;;;11.38;42.94;102802.00;5060563;28;20048;-66
2022/03/25 02:33:07;;;;;;;48.25;29.63;;;;;;;11.36;42.97;102794.94;5063374;28;20044;-66
2022/03/25 02:35:55;;;;;;;51.03;29.90;;;;;;;11.30;43.14;102798.78;5056726;28;20047;-67
2022/03/25 02:38:23;;;;;;;50.55;28.75;;;;;;;11.29;43.08;102797.03;5072298;28;20588;-66
2022/03/25 02:40:52;;;;;;;48.83;28.35;;;;;;;11.27;43.10;102798.91;5073318;28;20044;-67
2022/03/25 02:43:19;;;;;;;46.95;29.58;;;;;;;11.24;43.20;102799.03;5070337;28;20044;-67
2022/03/25 02:45:58;;;;;;;48.72;28.65;;;;;;;11.21;43.01;102806.34;5093460;28;20083;-66
2022/03/25 02:48:26;;;;;;;48.03;28.52;;;;;;;11.18;43.16;102793.91;5072675;28;20040;-68
2022/03/25 02:50:52;;;;;;;50.33;28.95;;;;;;;11.15;43.25;102796.75;5071142;28;20038;-67
2022/03/25 02:53:19;;;;;;;51.38;29.77;;;;;;;11.11;43.24;102798.66;5093526;28;20036;-66
2022/03/25 02:55:45;;;;;;;46.58;28.17;;;;;;;11.09;43.29;102796.97;5092028;28;20043;-66
2022/03/25 02:58:12;;;;;;;49.20;27.92;;;;;;;11.06;43.42;102799.78;5066666;28;20036;-67
2022/03/25 03:00:43;;;;;;;45.65;27.70;;;;;;;11.05;43.43;102798.03;5073634;28;20051;-67
2022/03/25 03:03:09;;;;;;;45.53;27.52;;;;;;;11.04;43.39;102802.53;5070485;28;20027;-66
2022/03/25 03:05:36;;;;;;;50.55;27.38;;;;;;;11.01;43.46;102796.41;5092031;28;20387;-67
2022/03/25 03:08:09;;;;;;;47.53;29.10;;;;;;;10.99;43.44;102798.28;5091299;28;20097;-66
2022/03/25 03:10:36;;;;;;;44.33;27.48;;;;;;;10.96;43.56;102799.28;5090232;28;20399;-66
2022/03/25 03:13:05;;;;;;;48.58;28.15;;;;;;;10.96;43.46;102806.47;5078292;28;20066;-67
2022/03/25 03:15:31;;;;;;;48.22;27.98;;;;;;;10.95;43.48;102813.69;5090267;28;20507;-67
2022/03/25 03:18:07;;;;;;;;;;;;;;;10.89;43.18;102808.56;5078754;28;20119;-66
2022/03/25 03:20:37;;;;;;;47.83;26.27;;;;;;;10.84;43.43;102802.50;5093016;28;19928;-67
2022/03/25 03:23:04;;;;;;;46.90;26.55;;;;;;;10.74;43.14;102812.75;5092999;28;20493;-66
2022/03/25 03:25:31;;;;;;;50.10;25.90;;;;;;;10.65;43.12;102805.06;5090346;28;20115;-66
2022/03/25 03:27:58;;;;;;;42.40;25.83;;;;;;;10.58;43.32;102803.56;5091197;28;20032;-67
2022/03/25 03:30:24;;;;;;;47.22;26.52;;;;;;;10.54;43.33;102801.03;5090990;28;20544;-65
2022/03/25 03:32:55;;;;;;;44.67;27.02;;;;;;;10.47;43.24;102803.09;5092811;28;20043;-67
2022/03/25 03:35:22;;;;;;;45.55;26.90;;;;;;;10.42;43.38;102807.78;5092551;28;20474;-66
2022/03/25 03:37:48;;;;;;;44.33;27.88;;;;;;;10.37;43.49;102799.00;5092538;28;20036;-66
2022/03/25 03:40:15;;;;;;;49.42;27.90;;;;;;;10.35;43.58;102806.22;5092208;28;20044;-65
2022/03/25 03:42:47;;;;;;;46.30;27.85;;;;;;;10.33;43.79;102797.38;5092359;28;20370;-67
2022/03/25 03:45:14;;;;;;;49.38;27.27;;;;;;;10.33;43.58;102792.88;5089727;28;20036;-65
2022/03/25 03:47:42;;;;;;;51.97;27.63;;;;;;;10.35;43.71;102791.00;5071760;28;20397;-66
2022/03/25 03:50:12;;;;;;;43.38;27.33;;;;;;;10.38;43.77;102788.19;5092870;28;20044;-66
2022/03/25 03:52:40;;;;;;;45.88;28.40;;;;;;;10.40;43.74;102791.72;5089831;28;20032;-66
2022/03/25 03:55:08;;;;;;;50.90;26.88;;;;;;;10.40;43.75;102793.50;5092487;28;20032;-66
2022/03/25 03:57:36;;;;;;;47.40;28.90;;;;;;;10.41;43.71;102795.28;5090670;28;20374;-67
2022/03/25 04:00:12;;;;;;;49.38;28.65;;;;;;;10.40;43.78;102794.41;5092740;28;20048;-67
2022/03/25 04:02:44;;;;;;;49.42;28.35;;;;;;;10.37;43.87;102790.94;5092018;28;20086;-66
2022/03/25 04:05:12;;;;;;;48.97;26.23;;;;;;;10.34;43.73;102800.00;5092582;28;20097;-66
2022/03/25 04:07:47;;;;;;;47.92;28.67;;;;;;;10.28;43.88;102800.22;5084176;28;20488;-66
2022/03/25 04:10:15;;;;;;;;;;;;;;;10.24;43.72;102803.97;5074070;28;20059;-65
2022/03/25 04:12:42;;;;;;;48.17;27.10;;;;;;;10.24;43.56;102800.41;5086816;28;19955;-65
2022/03/25 04:15:09;;;;;;;49.30;28.60;;;;;;;10.17;43.49;102810.47;5072708;28;20481;-66
2022/03/25 04:17:41;;;;;;;49.28;27.13;;;;;;;10.09;43.84;102810.75;5092158;28;20044;-66
2022/03/25 04:20:10;;;;;;;48.90;29.33;;;;;;;10.01;43.78;102812.00;5092021;28;20159;-66
2022/03/25 04:22:37;;;;;;;53.80;28.35;;;;;;;9.96;44.00;102814.84;5087028;28;20598;-67
2022/03/25 04:25:05;;;;;;;45.83;26.33;;;;;;;9.93;43.99;102820.31;5092415;28;20032;-66
2022/03/25 04:27:32;;;;;;;48.22;28.63;;;;;;;9.89;43.94;102816.00;5093571;28;20541;-67
2022/03/25 04:29:58;;;;;;;49.42;28.67;;;;;;;9.86;43.97;102824.16;5085460;28;20040;-67
2022/03/25 04:32:25;;;;;;;50.33;28.40;;;;;;;9.80;44.15;102824.38;5089043;28;20052;-67
2022/03/25 04:34:53;;;;;;;50.20;28.92;;;;;;;9.77;44.25;102825.38;5077781;28;20036;-67
2022/03/25 04:37:19;;;;;;;46.78;27.08;;;;;;;9.75;44.29;102821.00;5095627;28;20493;-67
2022/03/25 04:39:46;;;;;;;48.60;28.25;;;;;;;9.73;44.31;102825.53;5096135;28;20048;-66
2022/03/25 04:42:13;;;;;;;46.85;28.60;;;;;;;9.71;44.36;102817.56;5094515;28;20078;-67
2022/03/25 04:44:39;;;;;;;44.70;27.40;;;;;;;9.73;44.32;102820.19;5078642;28;20032;-67
2022/03/25 04:47:08;;;;;;;50.38;28.40;;;;;;;9.74;44.32;102821.94;5095563;28;20500;-66
2022/03/25 04:49:34;;;;;;;50.83;28.45;;;;;;;9.73;44.36;102826.41;5095594;28;20050;-66
2022/03/25 04:52:05;;;;;;;47.20;27.10;;;;;;;9.68;44.29;102828.41;5094523;28;20070;-67
2022/03/25 04:54:32;;;;;;;49.97;28.27;;;;;;;9.63;44.47;102829.47;5095906;28;20032;-67
2022/03/25 04:56:58;;;;;;;50.35;27.58;;;;;;;9.56;44.46;102832.34;5095844;28;20119;-67
2022/03/25 04:59:25;;;;;;;50.20;29.23;;;;;;;9.52;44.43;102824.47;5095936;28;20047;-67
2022/03/25 05:01:52;;;;;;;54.10;29.65;;;;;;;9.52;44.58;102827.16;5094800;28;20044;-67
2022/03/25 05:04:18;;;;;;;48.70;28.80;;;;;;;9.49;44.54;102828.13;5076848;28;20401;-66
2022/03/25 05:06:45;;;;;;;52.75;28.80;;;;;;;9.47;44.70;102832.69;5095364;28;20048;-66
2022/03/25 05:09:13;;;;;;;53.35;28.70;;;;;;;9.47;44.68;102827.31;5094562;28;20503;-67
2022/03/25 05:11:39;;;;;;;51.10;28.02;;;;;;;9.47;44.74;102829.13;5094275;28;20044;-67
2022/03/25 05:14:06;;;;;;;49.38;28.90;;;;;;;9.47;44.73;102826.44;5095159;28;20040;-66
2022/03/25 05:16:33;;;;;;;52.65;29.05;;;;;;;9.46;44.70;102828.25;5088948;28;20055;-66
2022/03/25 05:19:00;;;;;;;52.45;29.45;;;;;;;9.47;44.71;102838.03;5074933;28;20037;-67
2022/03/25 05:21:26;;;;;;;48.70;30.20;;;;;;;9.47;44.70;102827.31;5077602;28;20044;-65
2022/03/25 05:23:53;;;;;;;54.47;30.75;;;;;;;9.48;44.81;102831.75;5077319;28;20039;-67
2022/03/25 05:26:20;;;;;;;51.38;29.10;;;;;;;9.48;44.74;102834.44;5095167;28;20044;-67
2022/03/25 05:28:48;;;;;;;50.58;28.80;;;;;;;9.45;44.81;102829.19;5069317;28;20474;-66
2022/03/25 05:31:15;;;;;;;46.00;28.25;;;;;;;9.45;44.69;102829.19;5080052;28;20040;-66
2022/03/25 05:33:41;;;;;;;56.70;31.20;;;;;;;9.45;44.54;102828.28;5095546;28;20040;-66
2022/03/25 05:36:08;;;;;;;52.53;31.13;;;;;;;9.44;44.55;102827.41;5076284;28;20098;-66
2022/03/25 05:38:35;;;;;;;57.08;32.50;;;;;;;9.42;44.68;102840.00;5075228;28;20029;-66
2022/03/25 05:41:01;;;;;;;58.05;32.38;;;;;;;9.39;44.69;102834.75;5075475;28;20041;-65
2022/03/25 05:43:28;;;;;;;55.00;32.28;;;;;;;9.38;44.85;102837.47;5068124;28;20047;-65
2022/03/25 05:45:56;;;;;;;60.00;33.83;;;;;;;9.36;44.96;102837.53;5094898;28;20044;-66
2022/03/25 05:48:23;;;;;;;54.03;32.70;;;;;;;9.35;44.89;102842.94;5094842;28;20078;-67
2022/03/25 05:50:51;;;;;;;58.75;31.98;;;;;;;9.34;44.83;102846.56;5094350;28;20038;-66
2022/03/25 05:53:17;;;;;;;59.33;32.67;;;;;;;9.30;45.08;102843.13;5073215;28;20489;-66
2022/03/25 05:55:44;;;;;;;58.63;32.72;;;;;;;9.25;44.95;102842.38;5076698;28;20075;-67
2022/03/25 05:58:11;;;;;;;60.47;32.45;;;;;;;9.22;45.00;102845.19;5107043;28;20063;-66
2022/03/25 06:00:38;;;;;;;54.45;31.60;;;;;;;9.24;44.98;102846.00;5111531;28;20044;-65
2022/03/25 06:03:12;;;;;;;57.13;32.55;;;;;;;9.24;45.16;102854.03;5088368;28;20079;-67
2022/03/25 06:05:39;;;;;;;64.47;32.40;;;;;;;9.25;45.24;102855.78;5074465;28;20040;-65
2022/03/25 06:08:07;;;;;;;59.42;31.63;;;;;;;9.21;45.19;102852.34;5094316;28;20048;-66
2022/03/25 06:10:34;;;;;;;62.13;32.40;;;;;;;9.16;45.21;102859.66;5072881;28;20044;-65
2022/03/25 06:13:05;;;;;;;56.78;31.70;;;;;;;9.09;45.22;102847.38;5094520;28;20405;-66
2022/03/25 06:15:32;;;;;;;63.42;34.13;;;;;;;9.04;45.33;102862.75;5076691;28;20433;-65
2022/03/25 06:17:59;;;;;;;57.47;31.52;;;;;;;9.00;45.38;102863.78;5070554;28;20047;-66
2022/03/25 06:20:27;;;;;;;56.35;31.67;;;;;;;8.96;45.39;102863.91;5094642;28;20044;-65
2022/03/25 06:22:54;;;;;;;60.00;32.20;;;;;;;8.92;45.34;102868.50;5094059;28;20040;-67
2022/03/25 06:25:25;;;;;;;61.92;33.35;;;;;;;8.89;45.56;102872.13;5090420;28;20048;-66
2022/03/25 06:28:00;;;;;;;63.22;34.55;;;;;;;8.87;45.79;102876.66;5091479;28;20106;-65
2022/03/25 06:30:34;;;;;;;63.65;35.35;;;;;;;8.84;45.82;102868.72;5088841;28;20033;-66
2022/03/25 06:33:11;;;;;;;57.35;32.20;;;;;;;8.85;45.81;102881.19;5059415;28;20032;-66
2022/03/25 06:35:39;;;;;;;65.70;34.83;;;;;;;8.86;45.79;102879.38;5083963;28;20071;-66
2022/03/25 06:38:07;;;;;;;68.18;37.05;;;;;;;8.86;46.13;102880.25;5073592;28;20040;-65
2022/03/25 06:40:34;;;;;;;69.25;37.75;;;;;;;8.90;46.15;102879.22;5055997;28;20056;-69
2022/03/25 06:43:01;;;;;;;71.18;37.47;;;;;;;8.95;46.41;102880.91;5089887;28;20044;-65
2022/03/25 06:45:28;;;;;;;65.80;36.70;;;;;;;9.00;46.47;102878.97;5056645;28;20047;-66
2022/03/25 06:47:55;;;;;;;66.97;38.25;;;;;;;9.03;46.54;102884.25;5073241;28;20032;-65
2022/03/25 06:50:24;;;;;;;71.72;39.00;;;;;;;9.11;46.74;102877.69;5055567;28;20040;-65
2022/03/25 06:52:51;;;;;;;64.68;36.90;;;;;;;9.18;46.87;102881.94;5073546;28;20561;-66
2022/03/25 06:55:22;;;;;;;69.43;39.35;;;;;;;9.26;46.97;102883.47;5081516;28;20054;-66
2022/03/25 06:57:50;;;;;;;66.82;37.20;;;;;;;9.33;47.04;102882.34;5092303;28;20040;-66
2022/03/25 07:00:21;;;;;;;71.20;39.53;;;;;;;9.41;46.94;102880.28;5072182;28;20040;-66
2022/03/25 07:02:49;;;;;;;73.38;39.45;;;;;;;9.49;47.28;102887.16;5075431;28;20052;-65
2022/03/25 07:05:16;;;;;;;75.40;39.50;;;;;;;9.61;47.42;102893.00;5075698;28;20040;-66
2022/03/25 07:08:03;;;;;;;75.25;41.65;;;;;;;9.69;47.90;102889.16;5087806;28;20055;-67
2022/03/25 07:10:30;;;;;;;68.88;40.58;;;;;;;9.83;47.68;102896.72;5093208;28;20390;-66
2022/03/25 07:12:57;;;;;;;74.03;42.50;;;;;;;9.96;47.78;102899.84;5091309;28;20051;-66
2022/03/25 07:15:24;;;;;;;72.18;41.25;;;;;;;10.08;47.92;102900.28;5088197;28;20036;-66
2022/03/25 07:17:52;;;;;;;76.80;44.80;;;;;;;10.23;47.96;102903.38;5090044;28;20040;-66
2022/03/25 07:20:21;;;;;;;74.75;43.80;;;;;;;10.37;48.09;102901.06;5058370;28;20043;-66
2022/03/25 07:22:50;;;;;;;78.22;46.10;;;;;;;10.53;48.10;102902.25;5091629;28;20089;-67
2022/03/25 07:25:18;;;;;;;79.30;46.17;;;;;;;10.73;48.22;102909.56;5093022;28;20055;-66
2022/03/25 07:27:47;;;;;;;76.75;46.05;;;;;;;10.92;48.15;102907.88;5092908;28;20082;-66
2022/03/25 07:30:17;;;;;;;79.32;46.20;;;;;;;11.11;48.25;102908.91;5093011;28;20067;-67
2022/03/25 07:32:47;;;;;;;84.70;46.90;;;;;;;11.33;48.18;102914.31;5090427;28;20032;-67
2022/03/25 07:35:14;;;;;;;78.10;45.72;;;;;;;11.55;48.09;102916.09;5087941;28;20047;-67
2022/03/25 07:37:42;;;;;;;75.28;46.70;;;;;;;11.76;47.94;102910.69;5062773;28;20043;-64
2022/03/25 07:40:10;;;;;;;78.03;45.95;;;;;;;11.96;47.77;102920.63;5093103;28;20036;-65
2022/03/25 07:42:39;;;;;;;76.80;46.30;;;;;;;12.18;47.63;102925.06;5093312;28;20044;-64
2022/03/25 07:45:10;;;;;;;79.72;48.55;;;;;;;12.37;47.65;102924.16;5090084;28;20041;-65
2022/03/25 07:47:42;;;;;;;77.35;45.75;;;;;;;12.55;47.29;102927.84;5073358;28;21331;-65
2022/03/25 07:50:13;;;;;;;80.03;45.60;;;;;;;12.73;47.23;102931.53;5073151;28;20067;-65
2022/03/25 07:52:41;;;;;;;73.53;46.80;;;;;;;12.87;46.98;102930.88;5073447;28;20043;-65
2022/03/25 07:55:09;;;;;;;77.43;45.78;;;;;;;13.04;46.91;102939.03;5073312;28;20036;-65
2022/03/25 07:58:26;;;;;;;78.18;46.40;;;;;;;13.21;46.80;102940.94;5086348;28;20493;-65
2022/03/25 08:00:53;;;;;;;77.25;46.67;;;;;;;13.41;46.44;102945.41;5091929;28;20048;-65
2022/03/25 08:03:21;;;;;;;79.53;47.67;;;;;;;13.55;46.32;102951.84;5075251;28;20045;-65
2022/03/25 08:05:50;;;;;;;76.47;47.42;;;;;;;13.70;46.28;102941.22;5075902;28;20044;-65
2022/03/25 08:08:19;;;;;;;76.18;48.70;;;;;;;13.85;46.10;102945.84;5078835;28;20043;-65
2022/03/25 08:10:47;;;;;;;70.57;46.33;;;;;;;14.02;46.04;102944.97;5096862;28;20393;-65
2022/03/25 08:13:16;;;;;;;76.43;49.20;;;;;;;14.18;46.03;102945.94;5097187;28;20044;-66
2022/03/25 08:15:42;;;;;;;75.07;47.45;;;;;;;14.33;45.86;102945.13;5077147;28;20397;-65
2022/03/25 08:18:16;;;;;;;78.75;46.85;;;;;;;14.49;45.66;102948.78;5096605;28;20056;-61
2022/03/25 08:20:45;;;;;;;83.65;49.53;;;;;;;14.66;45.42;102953.25;5096755;28;20123;-62
2022/03/25 08:28:57;;;;;;;76.50;48.83;;;;;;;15.04;44.92;102964.69;5096696;28;20405;-62
2022/03/25 08:31:42;;;;;;;76.38;49.85;;;;;;;15.14;44.78;102963.22;5088727;28;20048;-62
2022/03/25 08:34:14;;;;;;;78.13;50.80;;;;;;;15.23;44.53;102961.81;5058452;28;20045;-62
2022/03/25 08:36:46;;;;;;;75.57;49.15;;;;;;;15.38;44.54;102962.78;5066319;28;20048;-62
2022/03/25 08:39:13;;;;;;;77.88;47.85;;;;;;;15.51;44.26;102961.97;5095648;28;20040;-62
2022/03/25 08:41:40;;;;;;;72.32;47.20;;;;;;;15.63;44.18;102959.56;5095962;28;20046;-62
2022/03/25 08:44:06;;;;;;;71.88;46.70;;;;;;;15.75;43.94;102954.28;5096405;28;20062;-62
2022/03/25 08:46:34;;;;;;;73.50;48.53;;;;;;;15.86;43.59;102953.66;5096381;28;20047;-63
2022/03/25 08:49:05;;;;;;;73.07;47.55;;;;;;;15.99;43.26;102959.22;5092171;28;20048;-62
2022/03/25 08:51:31;;;;;;;70.75;46.97;;;;;;;16.14;43.29;102967.28;5075868;28;20040;-62
2022/03/25 08:53:58;;;;;;;73.53;46.85;;;;;;;16.29;42.89;102970.88;5076186;28;20405;-63
2022/03/25 08:56:25;;;;;;;72.07;46.78;;;;;;;16.40;42.47;102971.13;5090933;28;20040;-62
2022/03/25 08:58:54;;;;;;;66.93;44.33;;;;;;;16.51;42.29;102967.75;5095986;28;20493;-63
2022/03/25 09:01:22;;;;;;;69.90;43.53;;;;;;;16.59;41.92;102970.84;5091117;28;20072;-62
2022/03/25 09:03:49;;;;;;;70.93;45.42;;;;;;;16.69;41.77;102980.19;5075754;28;20040;-64
2022/03/25 09:06:16;;;;;;;71.18;45.78;;;;;;;16.79;41.58;102977.75;5085223;28;20056;-63
2022/03/25 09:08:42;;;;;;;67.60;42.75;;;;;;;16.90;41.36;102977.09;5095601;28;20097;-64
2022/03/25 09:11:10;;;;;;;70.45;44.83;;;;;;;17.02;41.10;102979.00;5082888;28;20055;-64
2022/03/25 09:13:36;;;;;;;68.43;44.08;;;;;;;17.14;41.07;102976.41;5075507;28;20041;-64
2022/03/25 09:16:03;;;;;;;67.63;44.50;;;;;;;17.24;40.60;102983.94;5095595;28;20044;-63
2022/03/25 09:18:30;;;;;;;63.83;42.25;;;;;;;17.30;40.32;102984.41;5078657;28;20037;-65
2022/03/25 09:20:56;;;;;;;68.32;43.45;;;;;;;17.37;39.70;102991.19;5071252;28;20036;-63
2022/03/25 09:23:23;;;;;;;61.92;40.17;;;;;;;17.45;39.50;102991.56;5085970;28;20048;-64
2022/03/25 09:25:49;;;;;;;64.88;43.03;;;;;;;17.55;39.29;102993.66;5091120;28;20059;-64
2022/03/25 09:28:16;;;;;;;67.35;40.60;;;;;;;17.61;39.06;102991.41;5059469;28;20565;-64
2022/03/25 09:30:42;;;;;;;59.58;40.10;;;;;;;17.68;39.02;102990.06;5060413;28;20420;-65
2022/03/25 09:33:09;;;;;;;62.28;41.00;;;;;;;17.78;38.63;102993.88;5088496;28;20498;-64
2022/03/25 09:35:38;;;;;;;64.88;41.72;;;;;;;17.89;38.69;102989.59;5086427;28;20075;-64
2022/03/25 09:38:05;;;;;;;63.88;42.47;;;;;;;17.97;38.37;102990.81;5088107;28;20052;-64
2022/03/25 09:40:32;;;;;;;62.80;42.25;;;;;;;18.03;38.30;102982.25;5077817;28;20111;-64
2022/03/25 09:42:59;;;;;;;64.18;42.85;;;;;;;18.10;38.09;102982.69;5076889;28;20045;-64
2022/03/25 09:45:27;;;;;;;61.38;40.88;;;;;;;18.20;37.48;102977.50;5074901;28;20032;-66
2022/03/25 09:47:55;;;;;;;60.50;39.60;;;;;;;18.32;37.78;102980.22;5074645;28;20079;-65
2022/03/25 09:50:23;;;;;;;63.17;41.65;;;;;;;18.43;37.51;102988.50;5056910;28;20037;-64
2022/03/25 09:52:52;;;;;;;63.42;40.85;;;;;;;18.51;37.40;102976.19;5075514;28;20043;-64
2022/03/25 09:55:36;;;;;;;63.30;41.65;;;;;;;18.63;37.16;102976.25;5087125;28;20067;-64
2022/03/25 09:58:03;;;;;;;65.03;41.38;;;;;;;18.75;37.12;102973.63;5056723;28;20394;-64
2022/03/25 10:00:30;;;;;;;62.60;42.25;;;;;;;18.86;36.93;102979.19;5076003;28;20043;-63
2022/03/25 10:02:57;;;;;;;62.72;40.88;;;;;;;18.96;36.72;102978.41;5087828;28;20075;-64
2022/03/25 10:05:25;;;;;;;58.53;40.70;;;;;;;19.04;36.71;102975.13;5094767;28;20119;-64
2022/03/25 10:07:57;;;;;;;61.65;43.10;;;;;;;19.12;36.38;102980.00;5078520;28;20045;-64
2022/03/25 10:10:26;;;;;;;59.67;40.45;;;;;;;19.16;36.00;102976.94;5093957;28;20043;-64
2022/03/25 10:13:05;;;;;;;65.95;42.20;;;;;;;19.24;36.21;102970.91;5094626;28;20036;-64
2022/03/25 10:15:34;;;;;;;62.13;41.90;;;;;;;19.35;36.00;102971.88;5068902;28;20490;-64
2022/03/25 10:18:03;;;;;;;62.28;41.55;;;;;;;19.47;36.06;102971.97;5073888;28;20496;-62
2022/03/25 10:20:35;;;;;;;58.28;41.30;;;;;;;19.55;35.87;102975.88;5093224;28;20436;-63
2022/03/25 10:23:17;;;;;;;62.83;41.85;;;;;;;19.65;35.90;102976.91;5075966;28;20036;-64
2022/03/25 10:25:49;;;;;;;60.22;40.13;;;;;;;19.77;35.46;102971.53;5093890;28;20513;-64
2022/03/25 10:28:28;;;;;;;64.05;40.50;;;;;;;19.87;35.43;102964.38;5094242;28;20497;-64
2022/03/25 10:31:00;;;;;;;59.83;39.35;;;;;;;20.02;35.58;102971.38;5093645;28;20467;-64
2022/03/25 10:33:30;;;;;;;57.55;39.08;;;;;;;20.16;35.34;102963.00;5073901;28;20079;-64
2022/03/25 10:35:58;;;;;;;63.33;39.97;;;;;;;20.28;35.20;102970.22;5074924;28;20462;-65
2022/03/25 10:38:27;;;;;;;60.33;40.55;;;;;;;20.36;34.60;102964.16;5080540;28;20036;-64
2022/03/25 10:40:57;;;;;;;59.72;40.75;;;;;;;20.42;34.61;102966.44;5092526;28;20048;-65
2022/03/25 10:43:24;;;;;;;53.72;37.92;;;;;;;20.50;34.53;102960.38;5073618;28;20048;-64
2022/03/25 10:45:51;;;;;;;69.88;41.25;;;;;;;20.57;34.68;102964.34;5073777;28;20042;-64
2022/03/25 10:48:27;;;;;;;55.80;38.67;;;;;;;20.66;34.33;102958.16;5072012;28;20055;-65
2022/03/25 10:51:00;;;;;;;63.63;41.20;;;;;;;20.74;33.99;102960.25;5087321;28;20036;-65
2022/03/25 10:53:28;;;;;;;58.88;40.40;;;;;;;20.83;34.45;102949.50;5080476;28;20041;-65
2022/03/25 10:55:57;;;;;;;60.47;40.15;;;;;;;20.93;34.05;102955.94;5073518;28;20547;-65
2022/03/25 10:58:24;;;;;;;57.83;39.42;;;;;;;21.02;34.12;102962.50;5075014;28;20490;-65
2022/03/25 11:00:51;;;;;;;58.67;39.70;;;;;;;21.14;34.27;102955.16;5079005;28;20397;-65
2022/03/25 11:03:19;;;;;;;64.60;39.60;;;;;;;21.29;33.88;102953.06;5075414;28;20078;-65
2022/03/25 11:05:46;;;;;;;61.30;40.90;;;;;;;21.39;33.62;102948.56;5072959;28;20074;-64
2022/03/25 11:08:13;;;;;;;61.30;40.80;;;;;;;21.51;33.32;102955.72;5070199;28;20036;-64
2022/03/25 11:10:39;;;;;;;63.78;42.72;;;;;;;21.60;33.24;102954.13;5088889;28;20041;-64
2022/03/25 11:13:08;;;;;;;59.55;39.97;;;;;;;21.68;33.49;102957.94;5073693;28;20128;-65
2022/03/25 11:15:36;;;;;;;60.45;41.70;;;;;;;21.77;32.97;102950.81;5074598;28;20080;-65
2022/03/25 11:18:03;;;;;;;54.30;37.10;;;;;;;21.83;33.17;102942.94;5076445;28;20482;-65
2022/03/25 11:20:30;;;;;;;57.38;40.22;;;;;;;21.94;33.16;102944.75;5087483;28;20046;-64
2022/03/25 11:23:03;;;;;;;74.68;54.78;;;;;;;22.00;32.57;102943.38;5074605;28;20094;-65
2022/03/25 11:25:33;;;;;;;59.22;42.80;;;;;;;22.03;33.00;102941.25;5055223;28;20109;-65